sensor_id;sensor_type;location;lat;lon;timestamp;P1;durP1;ratioP1;P2;durP2;ratioP2
2892;SDS011;1456;51.840;12.184;2023-05-14T00:00:21;1.23;;;1.23;;
2892;SDS011;1456;51.840;12.184;2023-05-14T00:02:47;1.00;;;1.00;;
2892;SDS011;1456;51.840;12.184;2023-05-14T00:05:12;0.77;;;0.77;;
2892;SDS011;1456;51.840;12.184;2023-05-14T00:07:39;0.90;;;0.60;;
2892;SDS011;1456;51.840;12.184;2023-05-14T00:10:05;0.90;;;0.90;;
2892;SDS011;1456;51.840;12.184;2023-05-14T00:12:31;0.90;;;0.90;;
2892;SDS011;1456;51.840;12.184;2023-05-14T00:14:58;0.70;;;0.70;;
2892;SDS011;1456;51.840;12.184;2023-05-14T00:17:23;1.10;;;1.10;;
2892;SDS011;1456;51.840;12.184;2023-05-14T00:19:49;0.63;;;0.60;;
2892;SDS011;1456;51.840;12.184;2023-05-14T00:22:18;1.10;;;1.10;;
2892;SDS011;1456;51.840;12.184;2023-05-14T00:24:43;1.83;;;1.20;;
2892;SDS011;1456;51.840;12.184;2023-05-14T00:27:11;1.17;;;0.77;;
2892;SDS011;1456;51.840;12.184;2023-05-14T00:29:38;1.07;;;1.07;;
2892;SDS011;1456;51.840;12.184;2023-05-14T00:32:03;0.50;;;0.47;;
2892;SDS011;1456;51.840;12.184;2023-05-14T00:34:30;3.03;;;2.03;;
2892;SDS011;1456;51.840;12.184;2023-05-14T00:36:55;0.90;;;0.90;;
2892;SDS011;1456;51.840;12.184;2023-05-14T00:39:22;0.70;;;0.70;;
2892;SDS011;1456;51.840;12.184;2023-05-14T00:41:48;0.77;;;0.70;;
2892;SDS011;1456;51.840;12.184;2023-05-14T00:44:14;0.50;;;0.50;;
2892;SDS011;1456;51.840;12.184;2023-05-14T00:46:42;4.37;;;0.97;;
2892;SDS011;1456;51.840;12.184;2023-05-14T00:49:07;1.43;;;1.00;;
2892;SDS011;1456;51.840;12.184;2023-05-14T00:51:34;1.10;;;1.00;;
2892;SDS011;1456;51.840;12.184;2023-05-14T00:54:00;2.63;;;1.07;;
2892;SDS011;1456;51.840;12.184;2023-05-14T00:56:26;1.43;;;1.20;;
2892;SDS011;1456;51.840;12.184;2023-05-14T00:58:55;1.70;;;0.93;;
2892;SDS011;1456;51.840;12.184;2023-05-14T01:01:20;0.93;;;0.90;;
2892;SDS011;1456;51.840;12.184;2023-05-14T01:03:46;1.10;;;1.10;;
2892;SDS011;1456;51.840;12.184;2023-05-14T01:14:13;0.60;;;0.60;;
2892;SDS011;1456;51.840;12.184;2023-05-14T01:16:49;0.80;;;0.77;;
2892;SDS011;1456;51.840;12.184;2023-05-14T01:19:31;1.17;;;1.17;;
2892;SDS011;1456;51.840;12.184;2023-05-14T01:22:04;0.50;;;0.50;;
2892;SDS011;1456;51.840;12.184;2023-05-14T01:24:30;5.10;;;0.50;;
2892;SDS011;1456;51.840;12.184;2023-05-14T01:26:59;1.10;;;1.10;;
2892;SDS011;1456;51.840;12.184;2023-05-14T01:29:32;0.60;;;0.60;;
2892;SDS011;1456;51.840;12.184;2023-05-14T01:32:00;0.60;;;0.60;;
2892;SDS011;1456;51.840;12.184;2023-05-14T01:34:30;1.50;;;1.50;;
2892;SDS011;1456;51.840;12.184;2023-05-14T01:36:58;1.07;;;1.07;;
2892;SDS011;1456;51.840;12.184;2023-05-14T01:39:26;0.70;;;0.70;;
2892;SDS011;1456;51.840;12.184;2023-05-14T01:41:52;0.60;;;0.60;;
2892;SDS011;1456;51.840;12.184;2023-05-14T01:44:19;0.70;;;0.70;;
2892;SDS011;1456;51.840;12.184;2023-05-14T01:46:45;2.07;;;2.07;;
2892;SDS011;1456;51.840;12.184;2023-05-14T01:49:11;2.17;;;2.07;;
2892;SDS011;1456;51.840;12.184;2023-05-14T01:51:37;1.00;;;0.90;;
2892;SDS011;1456;51.840;12.184;2023-05-14T01:54:03;0.90;;;0.90;;
2892;SDS011;1456;51.840;12.184;2023-05-14T01:56:29;1.60;;;1.50;;
2892;SDS011;1456;51.840;12.184;2023-05-14T01:58:55;0.93;;;0.93;;
2892;SDS011;1456;51.840;12.184;2023-05-14T02:01:24;0.70;;;0.70;;
2892;SDS011;1456;51.840;12.184;2023-05-14T02:03:53;0.70;;;0.70;;
2892;SDS011;1456;51.840;12.184;2023-05-14T02:06:18;1.03;;;1.03;;
2892;SDS011;1456;51.840;12.184;2023-05-14T02:08:45;1.00;;;1.00;;
2892;SDS011;1456;51.840;12.184;2023-05-14T02:11:11;0.90;;;0.90;;
2892;SDS011;1456;51.840;12.184;2023-05-14T02:13:36;2.30;;;2.20;;
2892;SDS011;1456;51.840;12.184;2023-05-14T02:16:02;1.00;;;1.00;;
2892;SDS011;1456;51.840;12.184;2023-05-14T02:18:29;1.03;;;1.03;;
2892;SDS011;1456;51.840;12.184;2023-05-14T02:20:55;1.27;;;1.00;;
2892;SDS011;1456;51.840;12.184;2023-05-14T02:23:21;3.40;;;1.83;;
2892;SDS011;1456;51.840;12.184;2023-05-14T02:25:47;1.30;;;0.80;;
2892;SDS011;1456;51.840;12.184;2023-05-14T02:28:13;1.20;;;1.10;;
2892;SDS011;1456;51.840;12.184;2023-05-14T02:30:41;1.33;;;1.33;;
2892;SDS011;1456;51.840;12.184;2023-05-14T02:33:07;1.67;;;1.57;;
2892;SDS011;1456;51.840;12.184;2023-05-14T02:35:32;1.47;;;0.70;;
2892;SDS011;1456;51.840;12.184;2023-05-14T02:38:00;0.70;;;0.70;;
2892;SDS011;1456;51.840;12.184;2023-05-14T02:40:26;0.93;;;0.93;;
2892;SDS011;1456;51.840;12.184;2023-05-14T02:42:51;5.80;;;2.77;;
2892;SDS011;1456;51.840;12.184;2023-05-14T02:45:18;1.67;;;1.57;;
2892;SDS011;1456;51.840;12.184;2023-05-14T02:47:46;1.93;;;1.83;;
2892;SDS011;1456;51.840;12.184;2023-05-14T02:50:13;2.77;;;1.50;;
2892;SDS011;1456;51.840;12.184;2023-05-14T02:52:41;2.60;;;2.13;;
2892;SDS011;1456;51.840;12.184;2023-05-14T02:55:07;1.20;;;1.20;;
2892;SDS011;1456;51.840;12.184;2023-05-14T02:57:33;1.73;;;1.63;;
2892;SDS011;1456;51.840;12.184;2023-05-14T02:59:59;1.73;;;1.33;;
2892;SDS011;1456;51.840;12.184;2023-05-14T03:02:26;2.93;;;1.93;;
2892;SDS011;1456;51.840;12.184;2023-05-14T03:04:51;0.97;;;0.73;;
2892;SDS011;1456;51.840;12.184;2023-05-14T03:07:17;0.83;;;0.83;;
2892;SDS011;1456;51.840;12.184;2023-05-14T03:09:42;1.13;;;1.13;;
2892;SDS011;1456;51.840;12.184;2023-05-14T03:12:10;2.00;;;1.90;;
2892;SDS011;1456;51.840;12.184;2023-05-14T03:14:38;1.27;;;1.27;;
2892;SDS011;1456;51.840;12.184;2023-05-14T03:17:03;0.70;;;0.70;;
2892;SDS011;1456;51.840;12.184;2023-05-14T03:19:30;1.37;;;1.27;;
2892;SDS011;1456;51.840;12.184;2023-05-14T03:21:57;0.80;;;0.80;;
2892;SDS011;1456;51.840;12.184;2023-05-14T03:24:23;1.43;;;1.10;;
2892;SDS011;1456;51.840;12.184;2023-05-14T03:26:48;0.70;;;0.70;;
2892;SDS011;1456;51.840;12.184;2023-05-14T03:29:15;0.87;;;0.87;;
2892;SDS011;1456;51.840;12.184;2023-05-14T03:31:43;2.00;;;1.73;;
2892;SDS011;1456;51.840;12.184;2023-05-14T03:34:09;1.67;;;1.57;;
2892;SDS011;1456;51.840;12.184;2023-05-14T03:36:35;1.10;;;1.10;;
2892;SDS011;1456;51.840;12.184;2023-05-14T03:39:02;1.73;;;1.63;;
2892;SDS011;1456;51.840;12.184;2023-05-14T03:41:30;1.10;;;1.10;;
2892;SDS011;1456;51.840;12.184;2023-05-14T03:43:56;2.53;;;1.23;;
2892;SDS011;1456;51.840;12.184;2023-05-14T03:46:23;9.73;;;1.33;;
2892;SDS011;1456;51.840;12.184;2023-05-14T03:48:49;1.17;;;1.17;;
2892;SDS011;1456;51.840;12.184;2023-05-14T03:51:15;1.17;;;1.17;;
2892;SDS011;1456;51.840;12.184;2023-05-14T03:53:41;1.70;;;1.60;;
2892;SDS011;1456;51.840;12.184;2023-05-14T03:56:06;0.60;;;0.60;;
2892;SDS011;1456;51.840;12.184;2023-05-14T03:58:32;0.70;;;0.70;;
2892;SDS011;1456;51.840;12.184;2023-05-14T04:00:58;3.23;;;1.00;;
2892;SDS011;1456;51.840;12.184;2023-05-14T04:03:26;1.20;;;1.10;;
2892;SDS011;1456;51.840;12.184;2023-05-14T04:05:52;1.73;;;1.63;;
2892;SDS011;1456;51.840;12.184;2023-05-14T04:08:19;0.90;;;0.90;;
2892;SDS011;1456;51.840;12.184;2023-05-14T04:10:45;1.57;;;1.47;;
2892;SDS011;1456;51.840;12.184;2023-05-14T04:13:10;1.03;;;0.77;;
2892;SDS011;1456;51.840;12.184;2023-05-14T04:15:36;1.70;;;1.60;;
2892;SDS011;1456;51.840;12.184;2023-05-14T04:18:03;1.47;;;1.37;;
2892;SDS011;1456;51.840;12.184;2023-05-14T04:20:31;1.40;;;1.30;;
2892;SDS011;1456;51.840;12.184;2023-05-14T04:22:57;6.20;;;0.93;;
2892;SDS011;1456;51.840;12.184;2023-05-14T04:25:23;0.50;;;0.50;;
2892;SDS011;1456;51.840;12.184;2023-05-14T04:27:49;0.70;;;0.70;;
2892;SDS011;1456;51.840;12.184;2023-05-14T04:30:14;1.30;;;1.30;;
2892;SDS011;1456;51.840;12.184;2023-05-14T04:32:40;1.27;;;1.13;;
2892;SDS011;1456;51.840;12.184;2023-05-14T04:35:07;1.00;;;1.00;;
2892;SDS011;1456;51.840;12.184;2023-05-14T04:37:35;0.60;;;0.60;;
2892;SDS011;1456;51.840;12.184;2023-05-14T04:40:01;0.40;;;0.40;;
2892;SDS011;1456;51.840;12.184;2023-05-14T04:44:55;0.87;;;0.87;;
2892;SDS011;1456;51.840;12.184;2023-05-14T04:47:22;0.87;;;0.83;;
2892;SDS011;1456;51.840;12.184;2023-05-14T04:49:47;0.50;;;0.50;;
2892;SDS011;1456;51.840;12.184;2023-05-14T04:52:13;1.23;;;1.13;;
2892;SDS011;1456;51.840;12.184;2023-05-14T04:54:39;0.97;;;0.97;;
2892;SDS011;1456;51.840;12.184;2023-05-14T04:57:05;0.73;;;0.73;;
2892;SDS011;1456;51.840;12.184;2023-05-14T04:59:31;1.30;;;1.30;;
2892;SDS011;1456;51.840;12.184;2023-05-14T05:01:58;1.50;;;0.80;;
2892;SDS011;1456;51.840;12.184;2023-05-14T05:04:23;1.00;;;1.00;;
2892;SDS011;1456;51.840;12.184;2023-05-14T05:06:50;1.83;;;1.57;;
2892;SDS011;1456;51.840;12.184;2023-05-14T05:09:19;2.20;;;0.90;;
2892;SDS011;1456;51.840;12.184;2023-05-14T05:11:44;0.80;;;0.80;;
2892;SDS011;1456;51.840;12.184;2023-05-14T05:14:10;1.20;;;1.20;;
2892;SDS011;1456;51.840;12.184;2023-05-14T05:16:36;4.10;;;1.83;;
2892;SDS011;1456;51.840;12.184;2023-05-14T05:19:04;0.77;;;0.77;;
2892;SDS011;1456;51.840;12.184;2023-05-14T05:21:30;1.07;;;1.07;;
2892;SDS011;1456;51.840;12.184;2023-05-14T05:23:56;2.03;;;1.33;;
2892;SDS011;1456;51.840;12.184;2023-05-14T05:26:23;9.43;;;1.43;;
2892;SDS011;1456;51.840;12.184;2023-05-14T05:28:50;0.90;;;0.90;;
2892;SDS011;1456;51.840;12.184;2023-05-14T05:31:16;0.90;;;0.90;;
2892;SDS011;1456;51.840;12.184;2023-05-14T05:33:42;1.93;;;1.83;;
2892;SDS011;1456;51.840;12.184;2023-05-14T05:36:09;1.03;;;1.03;;
2892;SDS011;1456;51.840;12.184;2023-05-14T05:38:35;0.87;;;0.87;;
2892;SDS011;1456;51.840;12.184;2023-05-14T05:41:01;1.63;;;1.53;;
2892;SDS011;1456;51.840;12.184;2023-05-14T05:43:32;3.37;;;2.03;;
2892;SDS011;1456;51.840;12.184;2023-05-14T05:45:59;1.20;;;1.20;;
2892;SDS011;1456;51.840;12.184;2023-05-14T05:48:25;1.73;;;1.63;;
2892;SDS011;1456;51.840;12.184;2023-05-14T05:50:54;1.70;;;1.70;;
2892;SDS011;1456;51.840;12.184;2023-05-14T05:53:20;1.83;;;1.83;;
2892;SDS011;1456;51.840;12.184;2023-05-14T05:55:45;2.10;;;2.10;;
2892;SDS011;1456;51.840;12.184;2023-05-14T05:58:12;2.23;;;2.23;;
2892;SDS011;1456;51.840;12.184;2023-05-14T06:00:39;2.37;;;2.37;;
2892;SDS011;1456;51.840;12.184;2023-05-14T06:03:05;3.00;;;2.93;;
2892;SDS011;1456;51.840;12.184;2023-05-14T06:05:31;1.90;;;1.90;;
2892;SDS011;1456;51.840;12.184;2023-05-14T06:07:57;2.20;;;2.20;;
2892;SDS011;1456;51.840;12.184;2023-05-14T06:10:22;4.90;;;4.57;;
2892;SDS011;1456;51.840;12.184;2023-05-14T06:12:48;2.73;;;2.73;;
2892;SDS011;1456;51.840;12.184;2023-05-14T06:15:14;4.10;;;4.00;;
2892;SDS011;1456;51.840;12.184;2023-05-14T06:17:39;2.93;;;2.83;;
2892;SDS011;1456;51.840;12.184;2023-05-14T06:20:05;4.77;;;4.67;;
2892;SDS011;1456;51.840;12.184;2023-05-14T06:22:35;6.13;;;5.93;;
2892;SDS011;1456;51.840;12.184;2023-05-14T06:25:01;4.40;;;4.30;;
2892;SDS011;1456;51.840;12.184;2023-05-14T06:27:27;3.30;;;3.30;;
2892;SDS011;1456;51.840;12.184;2023-05-14T06:29:53;4.10;;;4.00;;
2892;SDS011;1456;51.840;12.184;2023-05-14T06:32:18;4.70;;;4.60;;
2892;SDS011;1456;51.840;12.184;2023-05-14T06:34:44;3.70;;;3.70;;
2892;SDS011;1456;51.840;12.184;2023-05-14T06:37:11;4.10;;;4.00;;
2892;SDS011;1456;51.840;12.184;2023-05-14T06:39:37;4.40;;;4.40;;
2892;SDS011;1456;51.840;12.184;2023-05-14T06:42:03;5.73;;;5.63;;
2892;SDS011;1456;51.840;12.184;2023-05-14T06:44:30;5.63;;;5.50;;
2892;SDS011;1456;51.840;12.184;2023-05-14T06:46:58;6.50;;;6.30;;
2892;SDS011;1456;51.840;12.184;2023-05-14T06:49:24;4.83;;;4.73;;
2892;SDS011;1456;51.840;12.184;2023-05-14T06:51:49;4.67;;;4.57;;
2892;SDS011;1456;51.840;12.184;2023-05-14T06:54:19;4.40;;;4.40;;
2892;SDS011;1456;51.840;12.184;2023-05-14T06:56:45;5.23;;;5.13;;
2892;SDS011;1456;51.840;12.184;2023-05-14T06:59:11;4.77;;;4.67;;
2892;SDS011;1456;51.840;12.184;2023-05-14T07:01:39;8.70;;;5.50;;
2892;SDS011;1456;51.840;12.184;2023-05-14T07:04:04;5.00;;;4.90;;
2892;SDS011;1456;51.840;12.184;2023-05-14T07:06:30;4.53;;;4.53;;
2892;SDS011;1456;51.840;12.184;2023-05-14T07:08:56;5.30;;;5.20;;
2892;SDS011;1456;51.840;12.184;2023-05-14T07:11:22;4.90;;;4.90;;
2892;SDS011;1456;51.840;12.184;2023-05-14T07:13:50;4.87;;;4.87;;
2892;SDS011;1456;51.840;12.184;2023-05-14T07:16:17;4.37;;;4.33;;
2892;SDS011;1456;51.840;12.184;2023-05-14T07:18:44;5.20;;;4.83;;
2892;SDS011;1456;51.840;12.184;2023-05-14T07:21:10;5.37;;;5.27;;
2892;SDS011;1456;51.840;12.184;2023-05-14T07:23:36;5.00;;;4.90;;
2892;SDS011;1456;51.840;12.184;2023-05-14T07:26:05;4.87;;;4.87;;
2892;SDS011;1456;51.840;12.184;2023-05-14T07:28:31;5.30;;;5.30;;
2892;SDS011;1456;51.840;12.184;2023-05-14T07:30:58;5.17;;;5.17;;
2892;SDS011;1456;51.840;12.184;2023-05-14T07:33:24;5.33;;;5.33;;
2892;SDS011;1456;51.840;12.184;2023-05-14T07:35:50;4.63;;;4.57;;
2892;SDS011;1456;51.840;12.184;2023-05-14T07:38:18;6.10;;;6.00;;
2892;SDS011;1456;51.840;12.184;2023-05-14T07:40:44;6.00;;;5.90;;
2892;SDS011;1456;51.840;12.184;2023-05-14T07:43:10;6.17;;;6.17;;
2892;SDS011;1456;51.840;12.184;2023-05-14T07:45:36;6.67;;;6.57;;
2892;SDS011;1456;51.840;12.184;2023-05-14T07:48:04;6.27;;;6.17;;
2892;SDS011;1456;51.840;12.184;2023-05-14T07:50:32;6.30;;;6.20;;
2892;SDS011;1456;51.840;12.184;2023-05-14T07:52:58;6.40;;;6.30;;
2892;SDS011;1456;51.840;12.184;2023-05-14T07:55:24;6.57;;;6.47;;
2892;SDS011;1456;51.840;12.184;2023-05-14T07:57:50;6.60;;;6.50;;
2892;SDS011;1456;51.840;12.184;2023-05-14T08:00:15;7.03;;;6.93;;
2892;SDS011;1456;51.840;12.184;2023-05-14T08:02:42;6.70;;;6.60;;
2892;SDS011;1456;51.840;12.184;2023-05-14T08:05:08;7.37;;;7.27;;
2892;SDS011;1456;51.840;12.184;2023-05-14T08:07:36;8.97;;;8.60;;
2892;SDS011;1456;51.840;12.184;2023-05-14T08:10:03;8.80;;;8.60;;
2892;SDS011;1456;51.840;12.184;2023-05-14T08:12:30;7.63;;;7.53;;
2892;SDS011;1456;51.840;12.184;2023-05-14T08:14:57;8.30;;;8.20;;
2892;SDS011;1456;51.840;12.184;2023-05-14T08:17:23;7.93;;;7.83;;
2892;SDS011;1456;51.840;12.184;2023-05-14T08:19:49;11.70;;;8.80;;
2892;SDS011;1456;51.840;12.184;2023-05-14T08:22:18;9.97;;;9.53;;
2892;SDS011;1456;51.840;12.184;2023-05-14T08:24:44;8.90;;;8.70;;
2892;SDS011;1456;51.840;12.184;2023-05-14T08:27:09;9.10;;;8.90;;
2892;SDS011;1456;51.840;12.184;2023-05-14T08:29:36;9.70;;;9.50;;
2892;SDS011;1456;51.840;12.184;2023-05-14T08:32:04;9.27;;;8.87;;
2892;SDS011;1456;51.840;12.184;2023-05-14T08:34:30;8.70;;;8.53;;
2892;SDS011;1456;51.840;12.184;2023-05-14T08:36:55;8.60;;;8.50;;
2892;SDS011;1456;51.840;12.184;2023-05-14T08:39:21;8.73;;;8.63;;
2892;SDS011;1456;51.840;12.184;2023-05-14T08:41:48;10.07;;;9.87;;
2892;SDS011;1456;51.840;12.184;2023-05-14T08:44:23;9.60;;;9.50;;
2892;SDS011;1456;51.840;12.184;2023-05-14T08:47:04;9.87;;;9.77;;
2892;SDS011;1456;51.840;12.184;2023-05-14T08:52:02;10.07;;;9.87;;
2892;SDS011;1456;51.840;12.184;2023-05-14T08:54:28;10.10;;;9.43;;
2892;SDS011;1456;51.840;12.184;2023-05-14T08:56:57;10.83;;;10.07;;
2892;SDS011;1456;51.840;12.184;2023-05-14T08:59:23;10.27;;;9.97;;
2892;SDS011;1456;51.840;12.184;2023-05-14T09:01:51;10.20;;;10.00;;
2892;SDS011;1456;51.840;12.184;2023-05-14T09:04:19;11.63;;;10.83;;
2892;SDS011;1456;51.840;12.184;2023-05-14T09:06:52;10.37;;;10.17;;
2892;SDS011;1456;51.840;12.184;2023-05-14T09:09:20;10.70;;;10.50;;
2892;SDS011;1456;51.840;12.184;2023-05-14T09:11:50;10.10;;;9.90;;
2892;SDS011;1456;51.840;12.184;2023-05-14T09:14:16;9.90;;;9.80;;
2892;SDS011;1456;51.840;12.184;2023-05-14T09:16:46;10.57;;;10.33;;
2892;SDS011;1456;51.840;12.184;2023-05-14T09:19:13;10.03;;;9.87;;
2892;SDS011;1456;51.840;12.184;2023-05-14T09:21:40;10.70;;;10.40;;
2892;SDS011;1456;51.840;12.184;2023-05-14T09:24:06;10.00;;;9.80;;
2892;SDS011;1456;51.840;12.184;2023-05-14T09:26:33;9.20;;;9.10;;
2892;SDS011;1456;51.840;12.184;2023-05-14T09:29:00;10.50;;;10.30;;
2892;SDS011;1456;51.840;12.184;2023-05-14T09:31:30;10.10;;;10.00;;
2892;SDS011;1456;51.840;12.184;2023-05-14T09:33:58;9.50;;;9.40;;
2892;SDS011;1456;51.840;12.184;2023-05-14T09:36:25;10.00;;;9.80;;
2892;SDS011;1456;51.840;12.184;2023-05-14T09:39:02;11.43;;;11.13;;
2892;SDS011;1456;51.840;12.184;2023-05-14T09:41:30;10.60;;;10.30;;
2892;SDS011;1456;51.840;12.184;2023-05-14T09:43:56;10.70;;;10.50;;
2892;SDS011;1456;51.840;12.184;2023-05-14T09:46:22;10.30;;;10.10;;
2892;SDS011;1456;51.840;12.184;2023-05-14T09:48:51;10.47;;;10.27;;
2892;SDS011;1456;51.840;12.184;2023-05-14T09:51:17;10.47;;;10.17;;
2892;SDS011;1456;51.840;12.184;2023-05-14T09:53:45;10.50;;;10.30;;
2892;SDS011;1456;51.840;12.184;2023-05-14T09:56:12;10.87;;;10.67;;
2892;SDS011;1456;51.840;12.184;2023-05-14T09:58:38;10.40;;;10.10;;
2892;SDS011;1456;51.840;12.184;2023-05-14T10:01:03;10.63;;;10.43;;
2892;SDS011;1456;51.840;12.184;2023-05-14T10:03:30;11.23;;;11.03;;
2892;SDS011;1456;51.840;12.184;2023-05-14T10:05:59;10.67;;;10.50;;
2892;SDS011;1456;51.840;12.184;2023-05-14T10:08:33;11.33;;;11.13;;
2892;SDS011;1456;51.840;12.184;2023-05-14T10:11:00;10.30;;;10.20;;
2892;SDS011;1456;51.840;12.184;2023-05-14T10:13:36;10.40;;;10.20;;
2892;SDS011;1456;51.840;12.184;2023-05-14T10:16:07;11.10;;;10.90;;
2892;SDS011;1456;51.840;12.184;2023-05-14T10:18:35;11.30;;;11.10;;
2892;SDS011;1456;51.840;12.184;2023-05-14T10:21:15;10.90;;;10.70;;
2892;SDS011;1456;51.840;12.184;2023-05-14T10:23:44;11.07;;;10.87;;
2892;SDS011;1456;51.840;12.184;2023-05-14T10:26:14;11.90;;;11.47;;
2892;SDS011;1456;51.840;12.184;2023-05-14T10:28:42;11.17;;;10.97;;
2892;SDS011;1456;51.840;12.184;2023-05-14T10:31:08;11.50;;;11.30;;
2892;SDS011;1456;51.840;12.184;2023-05-14T10:33:45;11.67;;;11.40;;
2892;SDS011;1456;51.840;12.184;2023-05-14T10:36:13;11.20;;;11.00;;
2892;SDS011;1456;51.840;12.184;2023-05-14T10:38:39;11.53;;;11.30;;
2892;SDS011;1456;51.840;12.184;2023-05-14T10:41:14;11.00;;;10.80;;
2892;SDS011;1456;51.840;12.184;2023-05-14T10:43:45;10.80;;;10.60;;
2892;SDS011;1456;51.840;12.184;2023-05-14T10:46:13;11.00;;;10.80;;
2892;SDS011;1456;51.840;12.184;2023-05-14T10:48:42;10.93;;;10.73;;
2892;SDS011;1456;51.840;12.184;2023-05-14T10:51:08;10.90;;;10.70;;
2892;SDS011;1456;51.840;12.184;2023-05-14T10:53:37;11.00;;;10.80;;
2892;SDS011;1456;51.840;12.184;2023-05-14T10:56:08;11.00;;;10.80;;
2892;SDS011;1456;51.840;12.184;2023-05-14T10:58:39;10.10;;;9.97;;
2892;SDS011;1456;51.840;12.184;2023-05-14T11:01:09;9.87;;;9.77;;
2892;SDS011;1456;51.840;12.184;2023-05-14T11:06:10;9.97;;;9.77;;
2892;SDS011;1456;51.840;12.184;2023-05-14T11:08:38;10.80;;;10.50;;
2892;SDS011;1456;51.840;12.184;2023-05-14T11:11:07;11.00;;;10.80;;
2892;SDS011;1456;51.840;12.184;2023-05-14T11:13:34;10.80;;;10.50;;
2892;SDS011;1456;51.840;12.184;2023-05-14T11:16:00;11.10;;;10.90;;
2892;SDS011;1456;51.840;12.184;2023-05-14T11:18:28;11.10;;;10.80;;
2892;SDS011;1456;51.840;12.184;2023-05-14T11:20:58;9.83;;;9.67;;
2892;SDS011;1456;51.840;12.184;2023-05-14T11:23:25;9.90;;;9.67;;
2892;SDS011;1456;51.840;12.184;2023-05-14T11:25:51;10.10;;;9.90;;
2892;SDS011;1456;51.840;12.184;2023-05-14T11:28:19;9.10;;;9.00;;
2892;SDS011;1456;51.840;12.184;2023-05-14T11:30:46;9.63;;;9.53;;
2892;SDS011;1456;51.840;12.184;2023-05-14T11:33:12;10.30;;;10.10;;
2892;SDS011;1456;51.840;12.184;2023-05-14T11:35:39;8.97;;;8.87;;
2892;SDS011;1456;51.840;12.184;2023-05-14T11:38:06;10.10;;;10.00;;
2892;SDS011;1456;51.840;12.184;2023-05-14T11:40:53;12.57;;;11.80;;
2892;SDS011;1456;51.840;12.184;2023-05-14T11:43:20;10.00;;;9.80;;
2892;SDS011;1456;51.840;12.184;2023-05-14T11:45:50;9.60;;;9.40;;
2892;SDS011;1456;51.840;12.184;2023-05-14T11:48:17;10.37;;;10.17;;
2892;SDS011;1456;51.840;12.184;2023-05-14T11:50:47;9.90;;;9.70;;
2892;SDS011;1456;51.840;12.184;2023-05-14T11:53:25;9.80;;;9.60;;
2892;SDS011;1456;51.840;12.184;2023-05-14T11:55:52;10.23;;;10.00;;
2892;SDS011;1456;51.840;12.184;2023-05-14T11:58:19;10.43;;;10.23;;
2892;SDS011;1456;51.840;12.184;2023-05-14T12:00:45;10.67;;;10.47;;
2892;SDS011;1456;51.840;12.184;2023-05-14T12:03:17;10.40;;;10.20;;
2892;SDS011;1456;51.840;12.184;2023-05-14T12:05:58;10.60;;;10.40;;
2892;SDS011;1456;51.840;12.184;2023-05-14T12:08:26;10.70;;;10.50;;
2892;SDS011;1456;51.840;12.184;2023-05-14T12:10:53;11.47;;;11.03;;
2892;SDS011;1456;51.840;12.184;2023-05-14T12:13:20;10.47;;;10.27;;
2892;SDS011;1456;51.840;12.184;2023-05-14T12:15:47;9.30;;;9.20;;
2892;SDS011;1456;51.840;12.184;2023-05-14T12:18:19;9.93;;;9.73;;
2892;SDS011;1456;51.840;12.184;2023-05-14T12:20:48;10.10;;;9.90;;
2892;SDS011;1456;51.840;12.184;2023-05-14T12:23:16;11.50;;;11.30;;
2892;SDS011;1456;51.840;12.184;2023-05-14T12:25:49;10.13;;;9.93;;
2892;SDS011;1456;51.840;12.184;2023-05-14T12:28:15;10.40;;;10.10;;
2892;SDS011;1456;51.840;12.184;2023-05-14T12:30:41;10.07;;;9.97;;
2892;SDS011;1456;51.840;12.184;2023-05-14T12:33:08;10.00;;;9.90;;
2892;SDS011;1456;51.840;12.184;2023-05-14T12:35:34;11.50;;;10.67;;
2892;SDS011;1456;51.840;12.184;2023-05-14T12:38:02;12.17;;;11.57;;
2892;SDS011;1456;51.840;12.184;2023-05-14T12:40:28;9.60;;;9.50;;
2892;SDS011;1456;51.840;12.184;2023-05-14T12:42:54;11.20;;;10.70;;
2892;SDS011;1456;51.840;12.184;2023-05-14T12:45:20;10.57;;;10.37;;
2892;SDS011;1456;51.840;12.184;2023-05-14T12:47:46;10.57;;;10.37;;
2892;SDS011;1456;51.840;12.184;2023-05-14T12:50:18;11.00;;;10.60;;
2892;SDS011;1456;51.840;12.184;2023-05-14T12:52:47;10.90;;;10.60;;
2892;SDS011;1456;51.840;12.184;2023-05-14T12:55:12;14.33;;;13.43;;
2892;SDS011;1456;51.840;12.184;2023-05-14T13:00:15;10.30;;;10.10;;
2892;SDS011;1456;51.840;12.184;2023-05-14T13:02:40;10.30;;;10.20;;
2892;SDS011;1456;51.840;12.184;2023-05-14T13:05:08;10.80;;;10.50;;
2892;SDS011;1456;51.840;12.184;2023-05-14T13:07:35;10.00;;;9.83;;
2892;SDS011;1456;51.840;12.184;2023-05-14T13:10:02;10.80;;;10.60;;
2892;SDS011;1456;51.840;12.184;2023-05-14T13:12:29;11.17;;;10.67;;
2892;SDS011;1456;51.840;12.184;2023-05-14T13:14:55;11.77;;;11.27;;
2892;SDS011;1456;51.840;12.184;2023-05-14T13:17:21;10.90;;;10.50;;
2892;SDS011;1456;51.840;12.184;2023-05-14T13:19:48;10.87;;;10.50;;
2892;SDS011;1456;51.840;12.184;2023-05-14T13:22:14;10.20;;;10.00;;
2892;SDS011;1456;51.840;12.184;2023-05-14T13:24:43;11.13;;;10.93;;
2892;SDS011;1456;51.840;12.184;2023-05-14T13:27:10;10.20;;;10.00;;
2892;SDS011;1456;51.840;12.184;2023-05-14T13:29:38;10.40;;;10.20;;
2892;SDS011;1456;51.840;12.184;2023-05-14T13:32:04;10.70;;;10.50;;
2892;SDS011;1456;51.840;12.184;2023-05-14T13:34:30;11.17;;;10.90;;
2892;SDS011;1456;51.840;12.184;2023-05-14T13:36:56;10.87;;;10.67;;
2892;SDS011;1456;51.840;12.184;2023-05-14T13:39:21;11.97;;;11.57;;
2892;SDS011;1456;51.840;12.184;2023-05-14T13:41:50;10.80;;;10.60;;
2892;SDS011;1456;51.840;12.184;2023-05-14T13:44:21;12.40;;;12.00;;
2892;SDS011;1456;51.840;12.184;2023-05-14T13:46:47;11.43;;;11.13;;
2892;SDS011;1456;51.840;12.184;2023-05-14T13:49:13;10.50;;;10.30;;
2892;SDS011;1456;51.840;12.184;2023-05-14T13:51:38;11.23;;;11.03;;
2892;SDS011;1456;51.840;12.184;2023-05-14T13:54:04;10.97;;;10.70;;
2892;SDS011;1456;51.840;12.184;2023-05-14T13:56:29;11.30;;;10.90;;
2892;SDS011;1456;51.840;12.184;2023-05-14T13:58:55;12.10;;;11.40;;
2892;SDS011;1456;51.840;12.184;2023-05-14T14:01:21;10.40;;;10.20;;
2892;SDS011;1456;51.840;12.184;2023-05-14T14:03:47;10.83;;;10.63;;
2892;SDS011;1456;51.840;12.184;2023-05-14T14:06:12;11.20;;;10.90;;
2892;SDS011;1456;51.840;12.184;2023-05-14T14:08:38;10.60;;;10.40;;
2892;SDS011;1456;51.840;12.184;2023-05-14T14:11:04;11.03;;;10.83;;
2892;SDS011;1456;51.840;12.184;2023-05-14T14:13:30;10.73;;;10.40;;
2892;SDS011;1456;51.840;12.184;2023-05-14T14:15:55;10.60;;;10.40;;
2892;SDS011;1456;51.840;12.184;2023-05-14T14:18:21;10.30;;;10.10;;
2892;SDS011;1456;51.840;12.184;2023-05-14T14:20:46;9.83;;;9.73;;
2892;SDS011;1456;51.840;12.184;2023-05-14T14:23:13;10.07;;;9.77;;
2892;SDS011;1456;51.840;12.184;2023-05-14T14:25:39;10.10;;;9.90;;
2892;SDS011;1456;51.840;12.184;2023-05-14T14:28:04;9.50;;;9.40;;
2892;SDS011;1456;51.840;12.184;2023-05-14T14:30:31;10.10;;;9.90;;
2892;SDS011;1456;51.840;12.184;2023-05-14T14:32:57;10.23;;;10.03;;
2892;SDS011;1456;51.840;12.184;2023-05-14T14:35:25;9.83;;;9.63;;
2892;SDS011;1456;51.840;12.184;2023-05-14T14:37:52;10.43;;;10.23;;
2892;SDS011;1456;51.840;12.184;2023-05-14T14:40:19;10.63;;;10.43;;
2892;SDS011;1456;51.840;12.184;2023-05-14T14:42:47;10.10;;;9.90;;
2892;SDS011;1456;51.840;12.184;2023-05-14T14:45:13;11.70;;;11.20;;
2892;SDS011;1456;51.840;12.184;2023-05-14T14:47:42;10.93;;;10.63;;
2892;SDS011;1456;51.840;12.184;2023-05-14T14:50:11;11.13;;;10.93;;
2892;SDS011;1456;51.840;12.184;2023-05-14T14:52:38;11.50;;;11.30;;
2892;SDS011;1456;51.840;12.184;2023-05-14T14:55:05;10.80;;;10.60;;
2892;SDS011;1456;51.840;12.184;2023-05-14T14:57:31;12.37;;;12.00;;
2892;SDS011;1456;51.840;12.184;2023-05-14T14:59:56;11.93;;;11.63;;
2892;SDS011;1456;51.840;12.184;2023-05-14T15:02:24;12.07;;;11.67;;
2892;SDS011;1456;51.840;12.184;2023-05-14T15:04:50;11.83;;;11.53;;
2892;SDS011;1456;51.840;12.184;2023-05-14T15:07:17;11.90;;;11.60;;
2892;SDS011;1456;51.840;12.184;2023-05-14T15:09:45;11.77;;;11.50;;